sensor_id;sensor_type;location;lat;lon;timestamp;P1;durP1;ratioP1;P2;durP2;ratioP2
27543;SDS011;17996;51.056;3.656;2023-05-24T00:01:21;19.33;;;4.70;;
27543;SDS011;17996;51.056;3.656;2023-05-24T00:03:50;18.80;;;5.38;;
27543;SDS011;17996;51.056;3.656;2023-05-24T00:06:17;22.13;;;6.38;;
27543;SDS011;17996;51.056;3.656;2023-05-24T00:08:45;26.42;;;6.30;;
27543;SDS011;17996;51.056;3.656;2023-05-24T00:11:11;20.25;;;6.00;;
27543;SDS011;17996;51.056;3.656;2023-05-24T00:13:37;19.05;;;5.55;;
27543;SDS011;17996;51.056;3.656;2023-05-24T00:16:03;23.33;;;6.45;;
27543;SDS011;17996;51.056;3.656;2023-05-24T00:18:29;21.90;;;7.07;;
27543;SDS011;17996;51.056;3.656;2023-05-24T00:21:00;19.63;;;5.80;;
27543;SDS011;17996;51.056;3.656;2023-05-24T00:23:26;22.92;;;5.72;;
27543;SDS011;17996;51.056;3.656;2023-05-24T00:25:52;21.20;;;6.55;;
27543;SDS011;17996;51.056;3.656;2023-05-24T00:28:17;21.17;;;6.13;;
27543;SDS011;17996;51.056;3.656;2023-05-24T00:30:43;26.63;;;7.03;;
27543;SDS011;17996;51.056;3.656;2023-05-24T00:33:09;27.77;;;6.90;;
27543;SDS011;17996;51.056;3.656;2023-05-24T00:35:34;26.77;;;6.53;;
27543;SDS011;17996;51.056;3.656;2023-05-24T00:38:00;18.05;;;5.65;;
27543;SDS011;17996;51.056;3.656;2023-05-24T00:40:26;30.50;;;6.75;;
27543;SDS011;17996;51.056;3.656;2023-05-24T00:42:51;23.25;;;6.43;;
27543;SDS011;17996;51.056;3.656;2023-05-24T00:45:17;17.80;;;5.38;;
27543;SDS011;17996;51.056;3.656;2023-05-24T00:47:43;20.67;;;5.72;;
27543;SDS011;17996;51.056;3.656;2023-05-24T00:50:10;21.85;;;5.65;;
27543;SDS011;17996;51.056;3.656;2023-05-24T00:52:39;22.17;;;5.90;;
27543;SDS011;17996;51.056;3.656;2023-05-24T00:55:06;15.25;;;4.72;;
27543;SDS011;17996;51.056;3.656;2023-05-24T00:57:36;16.35;;;5.35;;
27543;SDS011;17996;51.056;3.656;2023-05-24T01:00:03;19.15;;;6.15;;
27543;SDS011;17996;51.056;3.656;2023-05-24T01:02:29;14.27;;;4.68;;
27543;SDS011;17996;51.056;3.656;2023-05-24T01:04:56;13.77;;;4.60;;
27543;SDS011;17996;51.056;3.656;2023-05-24T01:07:26;12.50;;;4.80;;
27543;SDS011;17996;51.056;3.656;2023-05-24T01:13:11;16.92;;;5.03;;
27543;SDS011;17996;51.056;3.656;2023-05-24T01:20:57;17.15;;;5.72;;
27543;SDS011;17996;51.056;3.656;2023-05-24T01:23:55;20.25;;;5.05;;
27543;SDS011;17996;51.056;3.656;2023-05-24T01:29:31;10.80;;;4.32;;
27543;SDS011;17996;51.056;3.656;2023-05-24T01:31:57;16.25;;;5.13;;
27543;SDS011;17996;51.056;3.656;2023-05-24T01:34:27;11.63;;;4.35;;
27543;SDS011;17996;51.056;3.656;2023-05-24T01:36:52;13.93;;;4.80;;
27543;SDS011;17996;51.056;3.656;2023-05-24T01:39:19;11.73;;;4.88;;
27543;SDS011;17996;51.056;3.656;2023-05-24T01:44:43;16.65;;;5.43;;
27543;SDS011;17996;51.056;3.656;2023-05-24T01:47:43;17.33;;;5.72;;
27543;SDS011;17996;51.056;3.656;2023-05-24T01:50:16;15.88;;;5.15;;
27543;SDS011;17996;51.056;3.656;2023-05-24T01:52:46;14.68;;;5.07;;
27543;SDS011;17996;51.056;3.656;2023-05-24T01:55:16;12.80;;;4.97;;
27543;SDS011;17996;51.056;3.656;2023-05-24T01:57:43;15.07;;;6.18;;
27543;SDS011;17996;51.056;3.656;2023-05-24T02:00:11;17.90;;;4.75;;
27543;SDS011;17996;51.056;3.656;2023-05-24T02:02:39;13.32;;;4.50;;
27543;SDS011;17996;51.056;3.656;2023-05-24T02:05:05;14.35;;;5.50;;
27543;SDS011;17996;51.056;3.656;2023-05-24T02:07:31;17.23;;;6.00;;
27543;SDS011;17996;51.056;3.656;2023-05-24T02:09:57;16.90;;;5.75;;
27543;SDS011;17996;51.056;3.656;2023-05-24T02:12:22;15.82;;;4.97;;
27543;SDS011;17996;51.056;3.656;2023-05-24T02:14:48;18.98;;;6.00;;
27543;SDS011;17996;51.056;3.656;2023-05-24T02:17:16;17.30;;;5.35;;
27543;SDS011;17996;51.056;3.656;2023-05-24T02:19:42;15.98;;;5.25;;
27543;SDS011;17996;51.056;3.656;2023-05-24T02:22:08;11.73;;;5.82;;
27543;SDS011;17996;51.056;3.656;2023-05-24T02:24:34;11.93;;;5.65;;
27543;SDS011;17996;51.056;3.656;2023-05-24T02:27:00;17.23;;;6.18;;
27543;SDS011;17996;51.056;3.656;2023-05-24T02:29:26;14.65;;;7.07;;
27543;SDS011;17996;51.056;3.656;2023-05-24T02:31:52;15.15;;;5.95;;
27543;SDS011;17996;51.056;3.656;2023-05-24T02:34:23;16.35;;;5.53;;
27543;SDS011;17996;51.056;3.656;2023-05-24T02:36:50;18.33;;;6.10;;
27543;SDS011;17996;51.056;3.656;2023-05-24T02:39:18;15.48;;;6.35;;
27543;SDS011;17996;51.056;3.656;2023-05-24T02:41:44;12.02;;;6.18;;
27543;SDS011;17996;51.056;3.656;2023-05-24T02:44:10;15.07;;;5.53;;
27543;SDS011;17996;51.056;3.656;2023-05-24T02:46:36;24.15;;;6.65;;
27543;SDS011;17996;51.056;3.656;2023-05-24T02:49:01;14.43;;;6.50;;
27543;SDS011;17996;51.056;3.656;2023-05-24T02:51:27;21.10;;;6.57;;
27543;SDS011;17996;51.056;3.656;2023-05-24T02:53:53;16.63;;;5.82;;
27543;SDS011;17996;51.056;3.656;2023-05-24T02:56:18;15.77;;;5.63;;
27543;SDS011;17996;51.056;3.656;2023-05-24T02:58:47;17.63;;;6.35;;
27543;SDS011;17996;51.056;3.656;2023-05-24T03:01:12;13.07;;;5.13;;
27543;SDS011;17996;51.056;3.656;2023-05-24T03:03:38;10.98;;;5.15;;
27543;SDS011;17996;51.056;3.656;2023-05-24T03:06:06;11.63;;;5.70;;
27543;SDS011;17996;51.056;3.656;2023-05-24T03:08:33;12.80;;;5.63;;
27543;SDS011;17996;51.056;3.656;2023-05-24T03:11:01;16.88;;;6.80;;
27543;SDS011;17996;51.056;3.656;2023-05-24T03:13:27;14.10;;;6.03;;
27543;SDS011;17996;51.056;3.656;2023-05-24T03:15:53;13.65;;;6.38;;
27543;SDS011;17996;51.056;3.656;2023-05-24T03:18:18;17.67;;;5.70;;
27543;SDS011;17996;51.056;3.656;2023-05-24T03:20:44;12.68;;;6.30;;
27543;SDS011;17996;51.056;3.656;2023-05-24T03:23:10;19.02;;;6.18;;
27543;SDS011;17996;51.056;3.656;2023-05-24T03:25:36;23.05;;;6.72;;
27543;SDS011;17996;51.056;3.656;2023-05-24T03:28:02;13.85;;;5.75;;
27543;SDS011;17996;51.056;3.656;2023-05-24T03:30:28;13.77;;;6.70;;
27543;SDS011;17996;51.056;3.656;2023-05-24T03:32:54;14.73;;;5.95;;
27543;SDS011;17996;51.056;3.656;2023-05-24T03:35:19;15.13;;;6.20;;
27543;SDS011;17996;51.056;3.656;2023-05-24T03:37:46;14.52;;;5.80;;
27543;SDS011;17996;51.056;3.656;2023-05-24T03:40:12;17.02;;;6.35;;
27543;SDS011;17996;51.056;3.656;2023-05-24T03:42:38;15.88;;;6.20;;
27543;SDS011;17996;51.056;3.656;2023-05-24T03:45:04;13.45;;;5.78;;
27543;SDS011;17996;51.056;3.656;2023-05-24T03:47:30;12.45;;;6.00;;
27543;SDS011;17996;51.056;3.656;2023-05-24T03:49:56;16.63;;;6.30;;
27543;SDS011;17996;51.056;3.656;2023-05-24T03:52:22;13.10;;;5.65;;
27543;SDS011;17996;51.056;3.656;2023-05-24T03:54:48;19.42;;;6.07;;
27543;SDS011;17996;51.056;3.656;2023-05-24T03:57:13;17.25;;;6.03;;
27543;SDS011;17996;51.056;3.656;2023-05-24T03:59:39;14.90;;;5.65;;
27543;SDS011;17996;51.056;3.656;2023-05-24T04:02:05;18.35;;;6.55;;
27543;SDS011;17996;51.056;3.656;2023-05-24T04:04:31;9.77;;;5.35;;
27543;SDS011;17996;51.056;3.656;2023-05-24T04:06:57;15.18;;;5.80;;
27543;SDS011;17996;51.056;3.656;2023-05-24T04:09:22;9.30;;;5.00;;
27543;SDS011;17996;51.056;3.656;2023-05-24T04:11:48;15.23;;;6.00;;
27543;SDS011;17996;51.056;3.656;2023-05-24T04:14:14;15.23;;;5.80;;
27543;SDS011;17996;51.056;3.656;2023-05-24T04:16:40;13.65;;;6.10;;
27543;SDS011;17996;51.056;3.656;2023-05-24T04:19:09;13.32;;;5.93;;
27543;SDS011;17996;51.056;3.656;2023-05-24T04:21:36;12.45;;;6.43;;
27543;SDS011;17996;51.056;3.656;2023-05-24T04:24:02;16.10;;;5.65;;
27543;SDS011;17996;51.056;3.656;2023-05-24T04:26:29;11.80;;;5.78;;
27543;SDS011;17996;51.056;3.656;2023-05-24T04:28:56;18.25;;;5.88;;
27543;SDS011;17996;51.056;3.656;2023-05-24T04:31:21;14.70;;;6.07;;
27543;SDS011;17996;51.056;3.656;2023-05-24T04:33:48;15.02;;;5.90;;
27543;SDS011;17996;51.056;3.656;2023-05-24T04:36:14;15.85;;;6.43;;
27543;SDS011;17996;51.056;3.656;2023-05-24T04:38:41;18.20;;;6.03;;
27543;SDS011;17996;51.056;3.656;2023-05-24T04:41:07;16.10;;;6.32;;
27543;SDS011;17996;51.056;3.656;2023-05-24T04:43:34;14.77;;;6.50;;
27543;SDS011;17996;51.056;3.656;2023-05-24T04:46:00;10.77;;;5.40;;
27543;SDS011;17996;51.056;3.656;2023-05-24T04:48:25;13.82;;;6.20;;
27543;SDS011;17996;51.056;3.656;2023-05-24T04:50:52;10.20;;;5.50;;
27543;SDS011;17996;51.056;3.656;2023-05-24T04:53:19;16.75;;;6.03;;
27543;SDS011;17996;51.056;3.656;2023-05-24T04:55:46;14.05;;;5.80;;
27543;SDS011;17996;51.056;3.656;2023-05-24T04:58:12;14.93;;;6.13;;
27543;SDS011;17996;51.056;3.656;2023-05-24T05:00:38;20.17;;;6.97;;
27543;SDS011;17996;51.056;3.656;2023-05-24T05:03:04;17.02;;;6.95;;
27543;SDS011;17996;51.056;3.656;2023-05-24T05:05:31;20.02;;;6.72;;
27543;SDS011;17996;51.056;3.656;2023-05-24T05:07:57;17.17;;;5.70;;
27543;SDS011;17996;51.056;3.656;2023-05-24T05:10:22;25.10;;;7.68;;
27543;SDS011;17996;51.056;3.656;2023-05-24T05:12:49;19.63;;;6.53;;
27543;SDS011;17996;51.056;3.656;2023-05-24T05:15:15;17.35;;;7.50;;
27543;SDS011;17996;51.056;3.656;2023-05-24T05:17:41;18.75;;;6.43;;
27543;SDS011;17996;51.056;3.656;2023-05-24T05:20:06;24.35;;;7.38;;
27543;SDS011;17996;51.056;3.656;2023-05-24T05:22:32;17.35;;;6.97;;
27543;SDS011;17996;51.056;3.656;2023-05-24T05:24:59;17.00;;;6.00;;
27543;SDS011;17996;51.056;3.656;2023-05-24T05:27:25;15.80;;;7.07;;
27543;SDS011;17996;51.056;3.656;2023-05-24T05:29:51;17.67;;;6.88;;
27543;SDS011;17996;51.056;3.656;2023-05-24T05:32:17;19.10;;;7.00;;
27543;SDS011;17996;51.056;3.656;2023-05-24T05:34:43;15.95;;;6.28;;
27543;SDS011;17996;51.056;3.656;2023-05-24T05:37:09;17.05;;;5.85;;
27543;SDS011;17996;51.056;3.656;2023-05-24T05:39:34;25.77;;;7.75;;
27543;SDS011;17996;51.056;3.656;2023-05-24T05:42:00;24.55;;;7.95;;
27543;SDS011;17996;51.056;3.656;2023-05-24T05:44:28;22.73;;;6.82;;
27543;SDS011;17996;51.056;3.656;2023-05-24T05:46:54;23.40;;;7.22;;
27543;SDS011;17996;51.056;3.656;2023-05-24T05:49:19;22.98;;;7.25;;
27543;SDS011;17996;51.056;3.656;2023-05-24T05:51:45;22.83;;;7.18;;
27543;SDS011;17996;51.056;3.656;2023-05-24T05:54:11;23.00;;;6.78;;
27543;SDS011;17996;51.056;3.656;2023-05-24T05:56:43;30.27;;;7.55;;
27543;SDS011;17996;51.056;3.656;2023-05-24T05:59:11;23.17;;;6.80;;
27543;SDS011;17996;51.056;3.656;2023-05-24T06:01:38;19.88;;;6.65;;
27543;SDS011;17996;51.056;3.656;2023-05-24T06:04:05;21.73;;;6.93;;
27543;SDS011;17996;51.056;3.656;2023-05-24T06:06:30;21.63;;;7.38;;
27543;SDS011;17996;51.056;3.656;2023-05-24T06:08:57;21.55;;;7.53;;
27543;SDS011;17996;51.056;3.656;2023-05-24T06:11:23;39.05;;;8.38;;
27543;SDS011;17996;51.056;3.656;2023-05-24T06:13:50;29.42;;;6.97;;
27543;SDS011;17996;51.056;3.656;2023-05-24T06:16:16;27.08;;;6.90;;
27543;SDS011;17996;51.056;3.656;2023-05-24T06:18:42;21.50;;;7.78;;
27543;SDS011;17996;51.056;3.656;2023-05-24T06:21:08;25.13;;;7.35;;
27543;SDS011;17996;51.056;3.656;2023-05-24T06:23:35;20.73;;;7.18;;
27543;SDS011;17996;51.056;3.656;2023-05-24T06:26:02;21.67;;;7.47;;
27543;SDS011;17996;51.056;3.656;2023-05-24T06:28:28;27.38;;;7.30;;
27543;SDS011;17996;51.056;3.656;2023-05-24T06:30:54;28.13;;;8.13;;
27543;SDS011;17996;51.056;3.656;2023-05-24T06:33:20;24.42;;;7.88;;
27543;SDS011;17996;51.056;3.656;2023-05-24T06:35:46;30.20;;;7.70;;
27543;SDS011;17996;51.056;3.656;2023-05-24T06:38:12;26.17;;;7.80;;
27543;SDS011;17996;51.056;3.656;2023-05-24T06:40:38;22.15;;;7.32;;
27543;SDS011;17996;51.056;3.656;2023-05-24T06:43:04;22.63;;;7.60;;
27543;SDS011;17996;51.056;3.656;2023-05-24T06:45:30;24.17;;;7.82;;
27543;SDS011;17996;51.056;3.656;2023-05-24T06:47:56;20.95;;;6.68;;
27543;SDS011;17996;51.056;3.656;2023-05-24T06:50:21;27.20;;;7.57;;
27543;SDS011;17996;51.056;3.656;2023-05-24T06:52:47;21.98;;;7.53;;
27543;SDS011;17996;51.056;3.656;2023-05-24T06:55:13;35.10;;;6.65;;
27543;SDS011;17996;51.056;3.656;2023-05-24T06:57:39;25.35;;;8.25;;
27543;SDS011;17996;51.056;3.656;2023-05-24T07:00:06;25.98;;;8.30;;
27543;SDS011;17996;51.056;3.656;2023-05-24T07:02:36;25.40;;;7.10;;
27543;SDS011;17996;51.056;3.656;2023-05-24T07:05:02;26.67;;;7.55;;
27543;SDS011;17996;51.056;3.656;2023-05-24T07:07:29;32.72;;;7.22;;
27543;SDS011;17996;51.056;3.656;2023-05-24T07:09:55;23.30;;;6.72;;
27543;SDS011;17996;51.056;3.656;2023-05-24T07:12:20;35.75;;;7.45;;
27543;SDS011;17996;51.056;3.656;2023-05-24T07:14:47;31.17;;;6.32;;
27543;SDS011;17996;51.056;3.656;2023-05-24T07:17:13;34.40;;;7.35;;
27543;SDS011;17996;51.056;3.656;2023-05-24T07:19:39;31.38;;;8.00;;
27543;SDS011;17996;51.056;3.656;2023-05-24T07:22:05;25.88;;;6.72;;
27543;SDS011;17996;51.056;3.656;2023-05-24T07:24:31;27.85;;;6.90;;
27543;SDS011;17996;51.056;3.656;2023-05-24T07:26:57;31.83;;;7.93;;
27543;SDS011;17996;51.056;3.656;2023-05-24T07:29:23;24.25;;;7.00;;
27543;SDS011;17996;51.056;3.656;2023-05-24T07:31:50;20.40;;;6.90;;
27543;SDS011;17996;51.056;3.656;2023-05-24T07:34:17;30.13;;;7.10;;
27543;SDS011;17996;51.056;3.656;2023-05-24T07:36:45;27.48;;;6.97;;
27543;SDS011;17996;51.056;3.656;2023-05-24T07:39:12;25.13;;;6.13;;
27543;SDS011;17996;51.056;3.656;2023-05-24T07:41:39;24.55;;;6.82;;
27543;SDS011;17996;51.056;3.656;2023-05-24T07:44:06;26.90;;;7.28;;
27543;SDS011;17996;51.056;3.656;2023-05-24T07:46:35;25.73;;;6.80;;
27543;SDS011;17996;51.056;3.656;2023-05-24T07:49:02;21.05;;;7.05;;
27543;SDS011;17996;51.056;3.656;2023-05-24T07:51:28;30.45;;;7.38;;
27543;SDS011;17996;51.056;3.656;2023-05-24T07:53:53;26.83;;;7.47;;
27543;SDS011;17996;51.056;3.656;2023-05-24T07:56:19;26.50;;;8.43;;
27543;SDS011;17996;51.056;3.656;2023-05-24T07:58:45;31.13;;;7.30;;
27543;SDS011;17996;51.056;3.656;2023-05-24T08:01:13;29.33;;;7.00;;
27543;SDS011;17996;51.056;3.656;2023-05-24T08:03:38;27.27;;;6.68;;
27543;SDS011;17996;51.056;3.656;2023-05-24T08:06:04;27.92;;;7.57;;
27543;SDS011;17996;51.056;3.656;2023-05-24T08:08:30;25.35;;;7.07;;
27543;SDS011;17996;51.056;3.656;2023-05-24T08:10:55;32.00;;;7.22;;
27543;SDS011;17996;51.056;3.656;2023-05-24T08:13:21;23.63;;;6.25;;
27543;SDS011;17996;51.056;3.656;2023-05-24T08:15:47;35.15;;;7.80;;
27543;SDS011;17996;51.056;3.656;2023-05-24T08:18:13;20.25;;;5.78;;
27543;SDS011;17996;51.056;3.656;2023-05-24T08:20:38;26.63;;;6.90;;
27543;SDS011;17996;51.056;3.656;2023-05-24T08:23:05;26.13;;;7.80;;
27543;SDS011;17996;51.056;3.656;2023-05-24T08:25:30;31.30;;;8.57;;
27543;SDS011;17996;51.056;3.656;2023-05-24T08:27:56;22.48;;;7.40;;
27543;SDS011;17996;51.056;3.656;2023-05-24T08:30:22;30.83;;;8.77;;
27543;SDS011;17996;51.056;3.656;2023-05-24T08:32:48;22.17;;;7.07;;
27543;SDS011;17996;51.056;3.656;2023-05-24T08:35:15;26.00;;;7.88;;
27543;SDS011;17996;51.056;3.656;2023-05-24T08:37:40;24.63;;;7.63;;
27543;SDS011;17996;51.056;3.656;2023-05-24T08:40:06;22.38;;;8.52;;
27543;SDS011;17996;51.056;3.656;2023-05-24T08:42:33;28.40;;;7.93;;
27543;SDS011;17996;51.056;3.656;2023-05-24T08:45:03;26.27;;;7.80;;
27543;SDS011;17996;51.056;3.656;2023-05-24T08:47:35;27.30;;;8.25;;
27543;SDS011;17996;51.056;3.656;2023-05-24T08:50:02;31.42;;;8.50;;
27543;SDS011;17996;51.056;3.656;2023-05-24T08:52:30;32.25;;;8.18;;
27543;SDS011;17996;51.056;3.656;2023-05-24T08:54:57;25.15;;;8.23;;
27543;SDS011;17996;51.056;3.656;2023-05-24T08:57:25;33.22;;;9.27;;
27543;SDS011;17996;51.056;3.656;2023-05-24T08:59:51;22.27;;;8.88;;
27543;SDS011;17996;51.056;3.656;2023-05-24T09:02:20;27.58;;;8.93;;
27543;SDS011;17996;51.056;3.656;2023-05-24T09:04:46;29.25;;;8.93;;
27543;SDS011;17996;51.056;3.656;2023-05-24T09:07:15;28.42;;;8.65;;
27543;SDS011;17996;51.056;3.656;2023-05-24T09:09:44;29.70;;;9.38;;
27543;SDS011;17996;51.056;3.656;2023-05-24T09:12:14;27.60;;;8.93;;
27543;SDS011;17996;51.056;3.656;2023-05-24T09:14:43;25.70;;;7.32;;
27543;SDS011;17996;51.056;3.656;2023-05-24T09:17:13;23.20;;;8.00;;
27543;SDS011;17996;51.056;3.656;2023-05-24T09:19:43;30.60;;;7.70;;
27543;SDS011;17996;51.056;3.656;2023-05-24T09:22:12;30.60;;;7.65;;
27543;SDS011;17996;51.056;3.656;2023-05-24T09:24:42;24.73;;;7.97;;
27543;SDS011;17996;51.056;3.656;2023-05-24T09:27:11;26.55;;;7.68;;
27543;SDS011;17996;51.056;3.656;2023-05-24T09:29:40;19.00;;;6.72;;
27543;SDS011;17996;51.056;3.656;2023-05-24T09:32:07;16.35;;;6.53;;
27543;SDS011;17996;51.056;3.656;2023-05-24T09:34:37;21.90;;;6.80;;
27543;SDS011;17996;51.056;3.656;2023-05-24T09:37:04;22.63;;;6.20;;
27543;SDS011;17996;51.056;3.656;2023-05-24T09:39:31;25.38;;;6.13;;
27543;SDS011;17996;51.056;3.656;2023-05-24T09:41:56;19.45;;;6.50;;
27543;SDS011;17996;51.056;3.656;2023-05-24T09:44:25;20.67;;;7.20;;
27543;SDS011;17996;51.056;3.656;2023-05-24T09:46:53;20.95;;;6.68;;
27543;SDS011;17996;51.056;3.656;2023-05-24T09:49:25;23.60;;;6.22;;
27543;SDS011;17996;51.056;3.656;2023-05-24T09:51:51;24.13;;;6.68;;
27543;SDS011;17996;51.056;3.656;2023-05-24T09:54:16;17.38;;;6.50;;
27543;SDS011;17996;51.056;3.656;2023-05-24T09:56:42;23.83;;;7.30;;
27543;SDS011;17996;51.056;3.656;2023-05-24T09:59:10;18.52;;;6.65;;
27543;SDS011;17996;51.056;3.656;2023-05-24T10:01:36;21.27;;;6.32;;
27543;SDS011;17996;51.056;3.656;2023-05-24T10:04:02;26.63;;;6.53;;
27543;SDS011;17996;51.056;3.656;2023-05-24T10:06:31;23.40;;;7.45;;
27543;SDS011;17996;51.056;3.656;2023-05-24T10:09:01;19.33;;;6.30;;
27543;SDS011;17996;51.056;3.656;2023-05-24T10:11:32;16.05;;;5.97;;
27543;SDS011;17996;51.056;3.656;2023-05-24T10:14:00;15.07;;;6.22;;
27543;SDS011;17996;51.056;3.656;2023-05-24T10:16:31;15.80;;;6.07;;
27543;SDS011;17996;51.056;3.656;2023-05-24T10:18:57;18.42;;;6.63;;
27543;SDS011;17996;51.056;3.656;2023-05-24T10:21:23;21.00;;;6.25;;
27543;SDS011;17996;51.056;3.656;2023-05-24T10:23:56;23.40;;;6.65;;
27543;SDS011;17996;51.056;3.656;2023-05-24T10:26:24;16.98;;;5.85;;
27543;SDS011;17996;51.056;3.656;2023-05-24T10:28:54;21.20;;;6.47;;
27543;SDS011;17996;51.056;3.656;2023-05-24T10:31:29;16.15;;;6.00;;
27543;SDS011;17996;51.056;3.656;2023-05-24T10:33:57;16.05;;;6.18;;
27543;SDS011;17996;51.056;3.656;2023-05-24T10:36:25;20.83;;;7.45;;
27543;SDS011;17996;51.056;3.656;2023-05-24T10:38:51;12.50;;;5.75;;
27543;SDS011;17996;51.056;3.656;2023-05-24T10:41:18;19.80;;;5.78;;
27543;SDS011;17996;51.056;3.656;2023-05-24T10:43:44;13.18;;;6.35;;
27543;SDS011;17996;51.056;3.656;2023-05-24T10:46:12;16.00;;;5.97;;
27543;SDS011;17996;51.056;3.656;2023-05-24T10:48:39;22.40;;;6.85;;
27543;SDS011;17996;51.056;3.656;2023-05-24T10:51:26;19.17;;;5.90;;
27543;SDS011;17996;51.056;3.656;2023-05-24T10:53:57;21.95;;;7.13;;
27543;SDS011;17996;51.056;3.656;2023-05-24T10:56:38;21.65;;;6.45;;
27543;SDS011;17996;51.056;3.656;2023-05-24T10:59:06;18.30;;;5.57;;
27543;SDS011;17996;51.056;3.656;2023-05-24T11:01:32;20.17;;;6.38;;
27543;SDS011;17996;51.056;3.656;2023-05-24T11:04:08;15.27;;;6.18;;
27543;SDS011;17996;51.056;3.656;2023-05-24T11:06:59;24.52;;;6.82;;
27543;SDS011;17996;51.056;3.656;2023-05-24T11:09:27;18.80;;;6.43;;
27543;SDS011;17996;51.056;3.656;2023-05-24T11:11:54;19.38;;;5.72;;
27543;SDS011;17996;51.056;3.656;2023-05-24T11:14:33;18.02;;;5.97;;
27543;SDS011;17996;51.056;3.656;2023-05-24T11:17:06;19.73;;;5.50;;
27543;SDS011;17996;51.056;3.656;2023-05-24T11:19:33;14.13;;;5.13;;
27543;SDS011;17996;51.056;3.656;2023-05-24T11:22:09;21.70;;;6.10;;
27543;SDS011;17996;51.056;3.656;2023-05-24T11:24:37;15.87;;;5.73;;
27543;SDS011;17996;51.056;3.656;2023-05-24T11:27:05;16.52;;;5.03;;
27543;SDS011;17996;51.056;3.656;2023-05-24T11:29:32;15.13;;;5.00;;
27543;SDS011;17996;51.056;3.656;2023-05-24T11:32:04;12.15;;;4.60;;
27543;SDS011;17996;51.056;3.656;2023-05-24T11:34:31;14.45;;;5.20;;
27543;SDS011;17996;51.056;3.656;2023-05-24T11:36:58;18.50;;;5.15;;
27543;SDS011;17996;51.056;3.656;2023-05-24T11:39:30;16.10;;;5.05;;
27543;SDS011;17996;51.056;3.656;2023-05-24T11:41:58;15.32;;;5.30;;
27543;SDS011;17996;51.056;3.656;2023-05-24T11:44:26;18.63;;;5.65;;
27543;SDS011;17996;51.056;3.656;2023-05-24T11:46:58;17.38;;;5.45;;
27543;SDS011;17996;51.056;3.656;2023-05-24T11:49:27;17.85;;;5.75;;
27543;SDS011;17996;51.056;3.656;2023-05-24T11:51:53;18.15;;;6.15;;
27543;SDS011;17996;51.056;3.656;2023-05-24T11:54:23;18.98;;;5.97;;
27543;SDS011;17996;51.056;3.656;2023-05-24T11:56:51;13.45;;;5.28;;
27543;SDS011;17996;51.056;3.656;2023-05-24T11:59:21;13.52;;;5.28;;
27543;SDS011;17996;51.056;3.656;2023-05-24T12:01:49;14.02;;;5.45;;
27543;SDS011;17996;51.056;3.656;2023-05-24T12:04:21;13.75;;;4.95;;
27543;SDS011;17996;51.056;3.656;2023-05-24T12:06:47;12.48;;;5.25;;
27543;SDS011;17996;51.056;3.656;2023-05-24T12:09:13;12.57;;;4.80;;
27543;SDS011;17996;51.056;3.656;2023-05-24T12:11:39;12.93;;;4.15;;
27543;SDS011;17996;51.056;3.656;2023-05-24T12:14:10;10.80;;;4.60;;
27543;SDS011;17996;51.056;3.656;2023-05-24T12:16:37;14.25;;;5.13;;
27543;SDS011;17996;51.056;3.656;2023-05-24T12:19:03;13.82;;;4.93;;
27543;SDS011;17996;51.056;3.656;2023-05-24T12:21:30;15.23;;;5.00;;
27543;SDS011;17996;51.056;3.656;2023-05-24T12:24:03;8.55;;;4.35;;
27543;SDS011;17996;51.056;3.656;2023-05-24T12:26:34;11.60;;;4.57;;
27543;SDS011;17996;51.056;3.656;2023-05-24T12:29:01;10.10;;;4.82;;
27543;SDS011;17996;51.056;3.656;2023-05-24T12:31:27;9.70;;;4.05;;
27543;SDS011;17996;51.056;3.656;2023-05-24T12:33:53;12.05;;;5.03;;
27543;SDS011;17996;51.056;3.656;2023-05-24T12:36:18;16.65;;;4.85;;
27543;SDS011;17996;51.056;3.656;2023-05-24T12:38:44;19.92;;;6.53;;
27543;SDS011;17996;51.056;3.656;2023-05-24T12:41:10;12.25;;;4.85;;
27543;SDS011;17996;51.056;3.656;2023-05-24T12:43:36;11.57;;;4.75;;
27543;SDS011;17996;51.056;3.656;2023-05-24T12:46:02;10.25;;;4.07;;
27543;SDS011;17996;51.056;3.656;2023-05-24T12:48:28;11.85;;;4.55;;
27543;SDS011;17996;51.056;3.656;2023-05-24T12:50:54;12.23;;;5.32;;
27543;SDS011;17996;51.056;3.656;2023-05-24T12:53:20;19.73;;;6.70;;
27543;SDS011;17996;51.056;3.656;2023-05-24T12:55:48;11.48;;;4.88;;
27543;SDS011;17996;51.056;3.656;2023-05-24T12:58:15;11.93;;;5.25;;
27543;SDS011;17996;51.056;3.656;2023-05-24T13:00:43;12.63;;;5.13;;
27543;SDS011;17996;51.056;3.656;2023-05-24T13:03:13;11.98;;;5.57;;
27543;SDS011;17996;51.056;3.656;2023-05-24T13:05:39;10.45;;;4.70;;
27543;SDS011;17996;51.056;3.656;2023-05-24T13:08:05;10.10;;;5.32;;
27543;SDS011;17996;51.056;3.656;2023-05-24T13:10:31;15.02;;;5.43;;
27543;SDS011;17996;51.056;3.656;2023-05-24T13:12:57;14.85;;;6.28;;
27543;SDS011;17996;51.056;3.656;2023-05-24T13:15:23;14.07;;;5.50;;
27543;SDS011;17996;51.056;3.656;2023-05-24T13:17:51;11.30;;;4.70;;
27543;SDS011;17996;51.056;3.656;2023-05-24T13:20:18;19.35;;;5.82;;
27543;SDS011;17996;51.056;3.656;2023-05-24T13:22:46;13.07;;;5.97;;
27543;SDS011;17996;51.056;3.656;2023-05-24T13:25:12;14.38;;;6.53;;
27543;SDS011;17996;51.056;3.656;2023-05-24T13:27:37;14.10;;;5.28;;
27543;SDS011;17996;51.056;3.656;2023-05-24T13:30:03;13.75;;;5.57;;
27543;SDS011;17996;51.056;3.656;2023-05-24T13:32:30;12.70;;;5.38;;
27543;SDS011;17996;51.056;3.656;2023-05-24T13:34:56;14.90;;;5.82;;
27543;SDS011;17996;51.056;3.656;2023-05-24T13:37:23;9.85;;;4.93;;
27543;SDS011;17996;51.056;3.656;2023-05-24T13:39:49;11.85;;;5.63;;
27543;SDS011;17996;51.056;3.656;2023-05-24T13:42:15;14.27;;;5.18;;
27543;SDS011;17996;51.056;3.656;2023-05-24T13:44:41;13.82;;;4.88;;
27543;SDS011;17996;51.056;3.656;2023-05-24T13:47:07;16.35;;;6.25;;
27543;SDS011;17996;51.056;3.656;2023-05-24T13:49:33;11.65;;;5.85;;
27543;SDS011;17996;51.056;3.656;2023-05-24T13:51:58;18.60;;;6.32;;
27543;SDS011;17996;51.056;3.656;2023-05-24T13:54:24;13.25;;;5.93;;
27543;SDS011;17996;51.056;3.656;2023-05-24T13:56:50;16.45;;;5.82;;
27543;SDS011;17996;51.056;3.656;2023-05-24T13:59:16;18.35;;;6.40;;
27543;SDS011;17996;51.056;3.656;2023-05-24T14:01:42;21.67;;;7.22;;
27543;SDS011;17996;51.056;3.656;2023-05-24T14:04:09;17.65;;;6.65;;
27543;SDS011;17996;51.056;3.656;2023-05-24T14:06:34;20.77;;;6.35;;
27543;SDS011;17996;51.056;3.656;2023-05-24T14:09:02;15.90;;;6.00;;
27543;SDS011;17996;51.056;3.656;2023-05-24T14:11:30;18.48;;;6.47;;
27543;SDS011;17996;51.056;3.656;2023-05-24T14:13:56;19.42;;;6.05;;
27543;SDS011;17996;51.056;3.656;2023-05-24T14:16:22;14.82;;;6.22;;
27543;SDS011;17996;51.056;3.656;2023-05-24T14:18:49;9.20;;;5.30;;
27543;SDS011;17996;51.056;3.656;2023-05-24T14:21:16;19.38;;;6.40;;
27543;SDS011;17996;51.056;3.656;2023-05-24T14:23:42;17.80;;;6.32;;
27543;SDS011;17996;51.056;3.656;2023-05-24T14:26:08;17.00;;;6.40;;
27543;SDS011;17996;51.056;3.656;2023-05-24T14:28:33;20.98;;;5.72;;
27543;SDS011;17996;51.056;3.656;2023-05-24T14:30:59;17.67;;;5.38;;
27543;SDS011;17996;51.056;3.656;2023-05-24T14:33:25;17.70;;;7.07;;
27543;SDS011;17996;51.056;3.656;2023-05-24T14:35:50;18.17;;;5.80;;
27543;SDS011;17996;51.056;3.656;2023-05-24T14:38:16;21.00;;;5.80;;
27543;SDS011;17996;51.056;3.656;2023-05-24T14:40:42;13.43;;;5.50;;
27543;SDS011;17996;51.056;3.656;2023-05-24T14:45:36;20.67;;;5.63;;
27543;SDS011;17996;51.056;3.656;2023-05-24T14:48:03;19.85;;;5.82;;
27543;SDS011;17996;51.056;3.656;2023-05-24T14:50:29;17.20;;;5.03;;
27543;SDS011;17996;51.056;3.656;2023-05-24T14:52:55;8.55;;;4.40;;